createdAt,value
2023-02-12T00:00:47.969Z,2.43
2023-02-12T00:02:56.564Z,2.23
2023-02-12T00:05:05.383Z,2.37
2023-02-12T00:07:14.070Z,2.67
2023-02-12T00:09:22.588Z,2.60
2023-02-12T00:11:32.644Z,2.63
2023-02-12T00:13:41.333Z,2.17
2023-02-12T00:15:49.967Z,2.40
2023-02-12T00:17:58.527Z,2.20
2023-02-12T00:20:07.682Z,2.97
2023-02-12T00:22:16.108Z,2.47
2023-02-12T00:24:25.121Z,2.73
2023-02-12T00:26:35.076Z,2.83
2023-02-12T00:28:43.776Z,2.80
2023-02-12T00:30:52.324Z,2.97
2023-02-12T00:33:00.994Z,2.53
2023-02-12T00:35:09.847Z,2.43
2023-02-12T00:37:18.673Z,2.70
2023-02-12T00:39:27.311Z,2.33
2023-02-12T00:41:37.236Z,2.63
2023-02-12T00:43:45.726Z,2.00
2023-02-12T00:45:54.914Z,1.93
2023-02-12T00:48:03.672Z,1.70
2023-02-12T00:50:12.680Z,1.70
2023-02-12T00:52:21.112Z,1.50
2023-02-12T00:54:29.880Z,1.53
2023-02-12T00:56:39.980Z,1.80
2023-02-12T00:58:48.589Z,1.90
2023-02-12T01:00:57.055Z,1.80
2023-02-12T01:03:05.728Z,1.40
2023-02-12T01:05:14.286Z,1.20
2023-02-12T01:07:22.868Z,1.40
2023-02-12T01:09:31.440Z,1.93
2023-02-12T01:11:41.658Z,1.63
2023-02-12T01:13:50.181Z,1.53
2023-02-12T01:16:06.826Z,1.40
2023-02-12T01:18:16.380Z,1.30
2023-02-12T01:20:25.781Z,1.30
2023-02-12T01:22:35.742Z,1.80
2023-02-12T01:24:44.384Z,1.13
2023-02-12T01:26:54.185Z,1.60
2023-02-12T01:29:03.572Z,1.90
2023-02-12T01:31:13.052Z,2.37
2023-02-12T01:33:22.256Z,2.00
2023-02-12T01:35:30.712Z,1.47
2023-02-12T01:37:39.282Z,1.80
2023-02-12T01:39:47.779Z,1.60
2023-02-12T01:41:57.652Z,1.70
2023-02-12T01:44:07.554Z,1.57
2023-02-12T01:46:16.328Z,1.47
2023-02-12T01:48:26.309Z,1.53
2023-02-12T01:50:36.321Z,1.30
2023-02-12T01:52:47.082Z,1.73
2023-02-12T01:54:57.494Z,1.90
2023-02-12T01:57:08.218Z,1.70
2023-02-12T01:59:17.218Z,1.30
2023-02-12T02:01:27.631Z,1.27
2023-02-12T02:03:40.436Z,1.30
2023-02-12T02:05:51.865Z,1.17
2023-02-12T02:08:00.516Z,1.30
2023-02-12T02:10:10.041Z,1.83
2023-02-12T02:12:49.187Z,1.60
2023-02-12T02:15:00.004Z,1.27
2023-02-12T02:17:29.341Z,1.53
2023-02-12T02:19:45.285Z,1.37
2023-02-12T02:22:01.694Z,1.60
2023-02-12T02:24:28.867Z,1.60
2023-02-12T02:27:04.185Z,1.40
2023-02-12T02:29:27.866Z,1.50
2023-02-12T02:31:41.637Z,1.50
2023-02-12T02:33:53.339Z,1.40
2023-02-12T02:36:09.049Z,1.43
2023-02-12T02:38:22.068Z,1.40
2023-02-12T02:40:35.256Z,1.83
2023-02-12T02:42:46.809Z,1.70
2023-02-12T02:44:56.294Z,1.60
2023-02-12T02:47:09.189Z,1.47
2023-02-12T02:49:20.408Z,1.47
2023-02-12T02:51:31.120Z,1.67
2023-02-12T02:53:41.431Z,1.50
2023-02-12T02:55:51.796Z,1.60
2023-02-12T02:58:01.875Z,1.30
2023-02-12T03:00:14.011Z,1.47
2023-02-12T03:02:26.970Z,1.57
2023-02-12T03:04:37.254Z,1.50
2023-02-12T03:06:48.348Z,1.30
2023-02-12T03:08:58.391Z,1.13
2023-02-12T03:11:09.800Z,1.10
2023-02-12T03:13:22.312Z,1.17
2023-02-12T03:15:34.649Z,1.10
2023-02-12T03:17:46.694Z,1.30
2023-02-12T03:19:57.587Z,1.00
2023-02-12T03:22:08.115Z,1.00
2023-02-12T03:24:22.511Z,0.80
2023-02-12T03:26:35.063Z,1.13
2023-02-12T03:28:43.515Z,0.77
2023-02-12T03:30:55.379Z,0.73
2023-02-12T03:33:08.061Z,1.10
2023-02-12T03:35:18.263Z,0.87
2023-02-12T03:37:29.183Z,1.17
2023-02-12T03:39:41.088Z,1.43
2023-02-12T03:41:52.090Z,1.00
2023-02-12T03:44:04.598Z,0.93
2023-02-12T03:46:17.379Z,1.13
2023-02-12T03:48:30.649Z,1.27
2023-02-12T03:50:41.119Z,1.10
2023-02-12T03:52:51.755Z,0.90
2023-02-12T03:55:00.349Z,0.90
2023-02-12T03:57:11.102Z,1.03
2023-02-12T03:59:21.550Z,1.07
2023-02-12T04:01:30.601Z,0.83
2023-02-12T04:03:40.627Z,1.00
2023-02-12T04:05:49.116Z,0.90
2023-02-12T04:07:59.196Z,0.97
2023-02-12T04:10:08.357Z,0.97
2023-02-12T04:12:31.871Z,0.80
2023-02-12T04:14:44.352Z,1.00
2023-02-12T04:16:56.623Z,0.87
2023-02-12T04:19:06.972Z,1.10
2023-02-12T04:21:22.693Z,0.70
2023-02-12T04:23:42.331Z,0.93
2023-02-12T04:25:54.973Z,1.13
2023-02-12T04:28:09.314Z,0.70
2023-02-12T04:30:22.987Z,0.80
2023-02-12T04:32:35.637Z,0.90
2023-02-12T04:34:51.236Z,1.47
2023-02-12T04:37:01.563Z,1.83
2023-02-12T04:39:12.431Z,1.40
2023-02-12T04:41:20.998Z,1.40
2023-02-12T04:43:30.682Z,1.00
2023-02-12T04:45:39.953Z,0.60
2023-02-12T04:47:49.542Z,0.70
2023-02-12T04:49:59.649Z,0.60
2023-02-12T04:52:08.160Z,0.70
2023-02-12T04:54:17.353Z,0.83
2023-02-12T04:56:25.896Z,0.90
2023-02-12T04:58:34.492Z,0.77
2023-02-12T05:00:43.006Z,0.93
2023-02-12T05:02:51.505Z,0.80
2023-02-12T05:05:01.458Z,0.70
2023-02-12T05:07:09.931Z,1.20
2023-02-12T05:09:19.512Z,1.00
2023-02-12T05:11:28.008Z,0.80
2023-02-12T05:13:37.472Z,0.80
2023-02-12T05:15:46.384Z,0.90
2023-02-12T05:17:55.015Z,0.80
2023-02-12T05:20:05.176Z,0.83
2023-02-12T05:22:13.947Z,0.70
2023-02-12T05:24:22.545Z,1.00
2023-02-12T05:26:31.146Z,0.70
2023-02-12T05:28:39.630Z,0.60
2023-02-12T05:30:48.768Z,0.90
2023-02-12T05:32:57.499Z,0.80
2023-02-12T05:35:09.489Z,0.67
2023-02-12T05:37:18.062Z,0.80
2023-02-12T05:39:26.930Z,1.03
2023-02-12T05:41:36.071Z,0.73
2023-02-12T05:43:47.133Z,0.80
2023-02-12T05:45:57.318Z,0.77
2023-02-12T05:48:06.745Z,0.93
2023-02-12T05:50:16.952Z,0.80
2023-02-12T05:52:25.525Z,0.97
2023-02-12T05:54:34.245Z,0.80
2023-02-12T05:56:45.839Z,0.80
2023-02-12T05:58:55.840Z,0.70
2023-02-12T06:01:04.982Z,0.80
2023-02-12T06:03:13.515Z,0.90
2023-02-12T06:05:23.827Z,0.80
2023-02-12T06:07:32.345Z,0.70
2023-02-12T06:09:41.202Z,1.00
2023-02-12T06:11:49.935Z,0.80
2023-02-12T06:13:58.527Z,0.87
2023-02-12T06:16:07.579Z,0.90
2023-02-12T06:18:16.162Z,1.13
2023-02-12T06:20:26.148Z,1.37
2023-02-12T06:22:34.767Z,1.43
2023-02-12T06:24:43.297Z,1.60
2023-02-12T06:26:54.419Z,1.47
2023-02-12T06:29:03.424Z,1.50
2023-02-12T06:31:19.503Z,1.37
2023-02-12T06:33:28.105Z,1.40
2023-02-12T06:35:38.559Z,1.00
2023-02-12T06:37:47.177Z,1.03
2023-02-12T06:39:55.806Z,1.07
2023-02-12T06:42:04.348Z,1.13
2023-02-12T06:44:13.644Z,0.90
2023-02-12T06:46:22.239Z,0.87
2023-02-12T06:48:30.893Z,0.90
2023-02-12T06:50:40.851Z,0.80
2023-02-12T06:52:49.663Z,0.87
2023-02-12T06:54:58.194Z,1.67
2023-02-12T06:57:06.760Z,1.10
2023-02-12T06:59:16.642Z,0.80
2023-02-12T07:01:26.073Z,1.20
2023-02-12T07:03:34.741Z,1.10
2023-02-12T07:05:44.714Z,1.00
2023-02-12T07:07:53.162Z,0.90
2023-02-12T07:10:01.669Z,0.97
2023-02-12T07:12:10.189Z,1.20
2023-02-12T07:14:18.751Z,0.77
2023-02-12T07:16:27.532Z,0.87
2023-02-12T07:18:36.345Z,1.20
2023-02-12T07:20:46.166Z,1.43
2023-02-12T07:22:56.328Z,1.47
2023-02-12T07:25:04.960Z,1.83
2023-02-12T07:27:13.528Z,2.87
2023-02-12T07:29:22.184Z,2.50
2023-02-12T07:31:31.434Z,2.97
2023-02-12T07:33:40.427Z,2.30
2023-02-12T07:35:50.618Z,1.90
2023-02-12T07:37:59.232Z,1.77
2023-02-12T07:40:10.549Z,2.37
2023-02-12T07:42:19.066Z,3.60
2023-02-12T07:44:27.493Z,2.70
2023-02-12T07:46:37.252Z,1.43
2023-02-12T07:48:45.919Z,1.40
2023-02-12T07:50:55.885Z,1.27
2023-02-12T07:53:04.417Z,1.90
2023-02-12T07:55:13.320Z,3.57
2023-02-12T07:57:21.800Z,3.00
2023-02-12T07:59:30.712Z,1.70
2023-02-12T08:01:39.990Z,2.00
2023-02-12T08:03:49.029Z,1.93
2023-02-12T08:05:59.124Z,2.60
2023-02-12T08:08:07.639Z,2.90
2023-02-12T08:10:16.109Z,1.97
2023-02-12T08:12:25.163Z,1.70
2023-02-12T08:14:33.687Z,1.53
2023-02-12T08:16:42.944Z,1.73
2023-02-12T08:18:52.172Z,1.53
2023-02-12T08:21:05.262Z,1.73
2023-02-12T08:23:13.762Z,1.30
2023-02-12T08:25:22.202Z,1.37
2023-02-12T08:27:30.682Z,1.27
2023-02-12T08:29:39.658Z,1.30
2023-02-12T08:31:48.928Z,1.50
2023-02-12T08:33:58.090Z,1.10
2023-02-12T08:36:09.592Z,1.20
2023-02-12T08:38:18.118Z,1.80
2023-02-12T08:40:26.641Z,1.67
2023-02-12T08:42:35.227Z,1.97
2023-02-12T08:44:44.141Z,2.00
2023-02-12T08:46:55.654Z,1.70
2023-02-12T08:49:07.863Z,1.93
2023-02-12T08:51:19.633Z,1.43
2023-02-12T08:53:28.188Z,1.17
2023-02-12T08:55:36.741Z,1.50
2023-02-12T08:57:45.223Z,1.23
2023-02-12T08:59:53.772Z,1.43
2023-02-12T09:02:04.122Z,1.97
2023-02-12T09:04:16.122Z,1.40
2023-02-12T09:06:26.482Z,1.47
2023-02-12T09:08:35.122Z,1.50
2023-02-12T09:10:43.732Z,1.60
2023-02-12T09:12:52.366Z,1.53
2023-02-12T09:15:01.241Z,2.20
2023-02-12T09:17:09.827Z,2.20
2023-02-12T09:19:18.329Z,2.03
2023-02-12T09:21:28.452Z,1.80
2023-02-12T09:23:37.219Z,1.73
2023-02-12T09:25:46.631Z,1.63
2023-02-12T09:27:56.020Z,1.47
2023-02-12T09:30:04.613Z,1.60
2023-02-12T09:32:13.226Z,1.80
2023-02-12T09:34:21.931Z,1.80
2023-02-12T09:36:32.237Z,1.90
2023-02-12T09:38:41.114Z,1.60
2023-02-12T09:40:58.467Z,3.47
2023-02-12T09:43:10.301Z,1.87
2023-02-12T09:45:20.118Z,1.97
2023-02-12T09:47:33.025Z,1.47
2023-02-12T09:49:48.452Z,1.60
2023-02-12T09:51:58.903Z,2.23
2023-02-12T09:54:08.420Z,2.10
2023-02-12T09:56:18.834Z,1.40
2023-02-12T09:58:33.415Z,2.07
2023-02-12T10:00:42.159Z,1.73
2023-02-12T10:02:52.690Z,1.97
2023-02-12T10:05:02.429Z,1.80
2023-02-12T10:07:20.032Z,1.73
2023-02-12T10:09:43.851Z,1.80
2023-02-12T10:11:56.764Z,2.00
2023-02-12T10:14:13.014Z,1.90
2023-02-12T10:16:26.521Z,1.70
2023-02-12T10:18:44.113Z,1.37
2023-02-12T10:20:57.129Z,2.23
2023-02-12T10:23:13.944Z,2.03
2023-02-12T10:25:25.838Z,2.30
2023-02-12T10:27:39.844Z,2.53
2023-02-12T10:29:49.405Z,2.10
2023-02-12T10:32:01.264Z,2.10
2023-02-12T10:34:17.821Z,1.90
2023-02-12T10:36:37.724Z,1.97
2023-02-12T10:38:51.185Z,2.67
2023-02-12T10:41:01.995Z,2.33
2023-02-12T10:43:13.588Z,2.20
2023-02-12T10:45:23.348Z,2.70
2023-02-12T10:47:31.860Z,2.07
2023-02-12T10:49:42.194Z,2.27
2023-02-12T10:51:58.618Z,2.20
2023-02-12T10:54:26.313Z,1.90
2023-02-12T10:56:38.729Z,1.80
2023-02-12T10:58:54.800Z,2.40
2023-02-12T11:01:04.545Z,1.70
2023-02-12T11:03:23.812Z,1.83
2023-02-12T11:05:34.897Z,2.40
2023-02-12T11:07:48.896Z,2.23
2023-02-12T11:09:58.385Z,2.30
2023-02-12T11:12:19.590Z,1.70
2023-02-12T11:14:28.917Z,1.60
2023-02-12T11:16:38.855Z,2.20
2023-02-12T11:18:49.702Z,2.37
2023-02-12T11:21:01.518Z,2.37
2023-02-12T11:23:25.050Z,1.70
2023-02-12T11:25:34.486Z,1.80
2023-02-12T11:27:45.160Z,2.57
2023-02-12T11:30:13.286Z,2.23
2023-02-12T11:32:22.718Z,2.63
2023-02-12T11:34:33.634Z,1.97
2023-02-12T11:36:44.199Z,2.70
2023-02-12T11:38:55.344Z,2.07
2023-02-12T11:41:24.106Z,2.13
2023-02-12T11:43:37.446Z,2.23
2023-02-12T11:45:52.648Z,1.57
2023-02-12T11:48:01.956Z,1.67
2023-02-12T11:50:17.266Z,1.50
2023-02-12T11:52:28.072Z,1.80
2023-02-12T11:54:40.930Z,1.77
2023-02-12T11:56:50.057Z,2.10
2023-02-12T11:59:11.783Z,1.97
2023-02-12T12:01:24.248Z,1.50
2023-02-12T12:03:36.376Z,1.77
2023-02-12T12:05:47.880Z,1.77
2023-02-12T12:07:58.873Z,2.07
2023-02-12T12:10:10.023Z,1.50
2023-02-12T12:12:21.578Z,1.87
2023-02-12T12:14:34.277Z,1.83
2023-02-12T12:17:02.542Z,2.30
2023-02-12T12:19:32.353Z,1.90
2023-02-12T12:21:43.388Z,2.00
2023-02-12T12:23:53.630Z,2.10
2023-02-12T12:26:06.699Z,2.07
2023-02-12T12:28:26.787Z,2.13
2023-02-12T12:30:43.247Z,2.30
2023-02-12T12:32:54.594Z,1.97
2023-02-12T12:35:03.139Z,1.73
2023-02-12T12:37:20.525Z,2.40
2023-02-12T12:39:31.372Z,1.77
2023-02-12T12:41:48.362Z,2.37
2023-02-12T12:44:06.064Z,2.00
2023-02-12T12:46:32.559Z,1.60
2023-02-12T12:48:50.216Z,2.37
2023-02-12T12:51:15.220Z,2.90
2023-02-12T12:53:31.432Z,2.53
2023-02-12T12:55:49.165Z,2.03
2023-02-12T12:58:02.221Z,2.27
2023-02-12T13:00:20.649Z,1.90
2023-02-12T13:02:44.865Z,2.50
2023-02-12T13:05:20.207Z,1.93
2023-02-12T13:07:38.009Z,1.43
2023-02-12T13:10:02.037Z,2.17
2023-02-12T13:12:22.087Z,1.80
2023-02-12T13:14:37.463Z,2.03
2023-02-12T13:16:48.127Z,2.37
2023-02-12T13:19:00.272Z,1.67
2023-02-12T13:21:15.962Z,2.03
2023-02-12T13:23:28.208Z,2.10
2023-02-12T13:25:42.554Z,1.80
2023-02-12T13:27:52.582Z,2.23
2023-02-12T13:30:03.562Z,1.77
2023-02-12T13:32:15.395Z,2.10
2023-02-12T13:34:26.728Z,2.40
2023-02-12T13:36:38.270Z,1.63
2023-02-12T13:38:48.123Z,2.00
2023-02-12T13:40:58.959Z,1.77
2023-02-12T13:43:10.578Z,2.40
2023-02-12T13:45:24.262Z,1.87
2023-02-12T13:47:36.522Z,2.00
2023-02-12T13:49:49.589Z,2.10
2023-02-12T13:52:03.504Z,2.17
2023-02-12T13:54:16.709Z,1.93
2023-02-12T13:56:31.391Z,1.80
2023-02-12T13:59:00.639Z,2.20
2023-02-12T14:01:09.897Z,1.73
2023-02-12T14:03:18.746Z,2.13
2023-02-12T14:05:33.693Z,2.30
2023-02-12T14:07:45.617Z,2.30
2023-02-12T14:10:04.240Z,1.90
2023-02-12T14:12:16.148Z,2.30
2023-02-12T14:14:29.645Z,2.40
2023-02-12T14:16:44.485Z,2.03
2023-02-12T14:18:53.444Z,2.90
2023-02-12T14:21:23.008Z,1.60
2023-02-12T14:23:34.965Z,2.70
2023-02-12T14:25:44.992Z,2.30
2023-02-12T14:27:54.737Z,2.60
2023-02-12T14:30:22.381Z,2.43
2023-02-12T14:32:53.458Z,2.43
2023-02-12T14:35:17.048Z,2.40
2023-02-12T14:37:39.117Z,2.27
2023-02-12T14:39:49.093Z,2.00
2023-02-12T14:42:17.754Z,2.00
2023-02-12T14:44:44.668Z,2.53
2023-02-12T14:46:55.893Z,2.30
2023-02-12T14:49:06.675Z,2.10
2023-02-12T14:51:18.825Z,2.30
2023-02-12T14:53:32.080Z,2.23
2023-02-12T14:55:43.727Z,2.57
2023-02-12T14:57:53.129Z,1.90
2023-02-12T15:00:04.345Z,2.23
2023-02-12T15:02:17.910Z,2.37
2023-02-12T15:04:28.552Z,2.30
2023-02-12T15:06:38.997Z,2.63
2023-02-12T15:08:51.405Z,2.63
2023-02-12T15:11:04.560Z,2.20
2023-02-12T15:13:17.933Z,2.30
2023-02-12T15:15:30.866Z,2.27
2023-02-12T15:17:43.639Z,2.73
2023-02-12T15:19:55.159Z,2.17
2023-02-12T15:22:04.348Z,1.97
2023-02-12T15:24:13.485Z,2.27
2023-02-12T15:26:25.152Z,2.30
2023-02-12T15:28:35.553Z,2.40
2023-02-12T15:30:44.869Z,2.40
2023-02-12T15:32:55.366Z,2.50
2023-02-12T15:35:03.922Z,2.60
2023-02-12T15:37:20.051Z,2.90
2023-02-12T15:39:29.136Z,3.77
2023-02-12T15:41:43.889Z,2.50
2023-02-12T15:43:57.883Z,2.80
2023-02-12T15:46:07.915Z,2.87
2023-02-12T15:48:20.232Z,2.50
2023-02-12T15:50:29.076Z,2.97
2023-02-12T15:52:41.657Z,2.07
2023-02-12T15:54:50.735Z,2.37
2023-02-12T15:56:59.446Z,2.60
2023-02-12T15:59:08.327Z,3.00
2023-02-12T16:01:17.669Z,2.13
2023-02-12T16:03:28.837Z,2.20
2023-02-12T16:05:37.590Z,2.57
2023-02-12T16:07:46.929Z,2.40
2023-02-12T16:09:55.722Z,2.70
2023-02-12T16:12:05.888Z,2.27
2023-02-12T16:14:21.555Z,2.90
2023-02-12T16:16:31.086Z,2.83
2023-02-12T16:18:41.644Z,3.50
2023-02-12T16:20:50.330Z,4.23
2023-02-12T16:22:59.754Z,4.50
2023-02-12T16:25:17.351Z,3.97
2023-02-12T16:27:27.337Z,4.13
2023-02-12T16:29:38.659Z,3.73
2023-02-12T16:31:55.020Z,2.93
2023-02-12T16:34:05.953Z,2.90
2023-02-12T16:36:16.441Z,2.90
2023-02-12T16:38:41.594Z,2.60
2023-02-12T16:41:10.606Z,3.20
2023-02-12T16:43:28.105Z,2.80
2023-02-12T16:45:43.927Z,2.90
2023-02-12T16:47:52.821Z,2.70
2023-02-12T16:50:03.435Z,4.23
2023-02-12T16:52:23.113Z,3.10
2023-02-12T16:54:33.036Z,3.00
2023-02-12T16:56:42.610Z,2.63
2023-02-12T16:58:55.205Z,2.70
2023-02-12T17:01:05.214Z,1.97
2023-02-12T17:03:15.110Z,3.07
2023-02-12T17:05:24.218Z,2.90
2023-02-12T17:07:32.851Z,3.50
2023-02-12T17:09:41.766Z,2.83
2023-02-12T17:11:50.338Z,2.80
2023-02-12T17:14:00.676Z,3.10
2023-02-12T17:16:11.262Z,2.73
2023-02-12T17:18:21.833Z,2.30
2023-02-12T17:20:30.516Z,2.60
2023-02-12T17:22:39.141Z,2.47
2023-02-12T17:24:51.496Z,3.93
2023-02-12T17:27:00.098Z,3.20
2023-02-12T17:29:10.264Z,3.10
2023-02-12T17:31:20.838Z,4.90
2023-02-12T17:33:29.617Z,2.80
2023-02-12T17:35:39.201Z,3.30
2023-02-12T17:37:48.118Z,2.50
2023-02-12T17:39:57.019Z,2.80
2023-02-12T17:42:06.848Z,2.40
2023-02-12T17:44:16.758Z,2.63
2023-02-12T17:46:26.484Z,2.53
2023-02-12T17:48:34.941Z,2.90
2023-02-12T17:50:44.198Z,3.17
2023-02-12T17:52:52.842Z,3.80
2023-02-12T17:55:01.381Z,3.47
2023-02-12T17:57:13.021Z,2.30
2023-02-12T17:59:23.805Z,2.30
2023-02-12T18:01:34.568Z,2.20
2023-02-12T18:03:43.459Z,2.00
2023-02-12T18:05:52.981Z,2.50
2023-02-12T18:08:03.607Z,2.10
2023-02-12T18:10:13.279Z,1.90
2023-02-12T18:12:21.987Z,1.90
2023-02-12T18:14:32.148Z,2.97
2023-02-12T18:16:40.962Z,2.37
2023-02-12T18:18:49.771Z,1.90
2023-02-12T18:20:58.690Z,1.77
2023-02-12T18:23:08.511Z,2.90
2023-02-12T18:25:18.076Z,2.30
2023-02-12T18:27:27.405Z,2.10
2023-02-12T18:29:37.398Z,2.40
2023-02-12T18:31:46.085Z,2.10
2023-02-12T18:33:55.142Z,2.17
2023-02-12T18:36:05.136Z,2.17
2023-02-12T18:38:13.673Z,2.13
2023-02-12T18:40:22.227Z,2.50
2023-02-12T18:42:32.873Z,1.70
2023-02-12T18:44:43.841Z,1.90
2023-02-12T18:46:52.556Z,2.57
2023-02-12T18:49:01.615Z,2.20
2023-02-12T18:51:10.948Z,1.90
2023-02-12T18:53:19.846Z,2.40
2023-02-12T18:55:28.433Z,2.70
2023-02-12T18:57:36.967Z,2.10
2023-02-12T18:59:47.057Z,2.30
2023-02-12T19:01:55.885Z,1.53
2023-02-12T19:04:06.152Z,2.13
2023-02-12T19:06:14.842Z,1.50
2023-02-12T19:08:23.413Z,2.50
2023-02-12T19:10:32.064Z,2.60
2023-02-12T19:12:40.702Z,1.40
2023-02-12T19:14:50.996Z,2.10
2023-02-12T19:16:59.691Z,1.70
2023-02-12T19:19:08.495Z,1.80
2023-02-12T19:21:17.125Z,1.90
2023-02-12T19:23:25.632Z,2.40
2023-02-12T19:25:39.705Z,2.80
2023-02-12T19:27:48.494Z,2.13
2023-02-12T19:29:58.492Z,2.70
2023-02-12T19:32:07.457Z,2.77
2023-02-12T19:34:19.540Z,2.30
2023-02-12T19:36:29.161Z,2.53
2023-02-12T19:38:37.877Z,2.30
2023-02-12T19:40:46.294Z,1.97
2023-02-12T19:42:54.948Z,1.73
2023-02-12T19:45:04.850Z,1.77
2023-02-12T19:47:13.689Z,2.10
2023-02-12T19:49:22.917Z,2.60
2023-02-12T19:51:31.981Z,2.60
2023-02-12T19:53:40.796Z,1.67
2023-02-12T19:55:49.328Z,1.50
2023-02-12T19:57:57.792Z,1.60
2023-02-12T20:00:08.735Z,1.80
2023-02-12T20:02:17.883Z,1.70
2023-02-12T20:04:26.550Z,1.50
2023-02-12T20:06:36.927Z,1.60
2023-02-12T20:08:45.568Z,1.90
2023-02-12T20:10:54.438Z,1.37
2023-02-12T20:13:03.100Z,1.67
2023-02-12T20:15:13.051Z,1.73
2023-02-12T20:17:21.703Z,1.70
2023-02-12T20:19:31.332Z,1.80
2023-02-12T20:21:40.245Z,1.90
2023-02-12T20:23:48.886Z,1.50
2023-02-12T20:25:57.830Z,1.57
2023-02-12T20:28:06.434Z,1.20
2023-02-12T20:30:17.083Z,1.30
2023-02-12T20:32:25.637Z,1.07
2023-02-12T20:34:48.924Z,1.53
2023-02-12T20:36:58.893Z,1.27
2023-02-12T20:39:08.583Z,1.60
2023-02-12T20:41:17.082Z,1.30
2023-02-12T20:43:25.711Z,1.33
2023-02-12T20:45:36.713Z,1.30
2023-02-12T20:47:45.449Z,1.20
2023-02-12T20:49:55.528Z,1.00
2023-02-12T20:52:04.282Z,1.50
2023-02-12T20:54:13.045Z,1.20
2023-02-12T20:56:22.706Z,1.20
2023-02-12T20:58:31.538Z,1.37
2023-02-12T21:00:41.682Z,2.30
2023-02-12T21:02:50.859Z,1.70
2023-02-12T21:04:59.851Z,2.23
2023-02-12T21:07:08.831Z,1.60
2023-02-12T21:09:17.434Z,1.40
2023-02-12T21:11:26.776Z,1.13
2023-02-12T21:13:35.626Z,1.50
2023-02-12T21:15:45.646Z,1.63
2023-02-12T21:17:54.317Z,1.40
2023-02-12T21:20:02.855Z,1.40
2023-02-12T21:22:11.517Z,1.43
2023-02-12T21:24:21.838Z,0.93
2023-02-12T21:26:32.296Z,1.17
2023-02-12T21:28:41.027Z,1.20
2023-02-12T21:30:50.965Z,1.20
2023-02-12T21:32:59.704Z,1.30
2023-02-12T21:35:08.722Z,1.13
2023-02-12T21:37:17.317Z,1.20
2023-02-12T21:39:27.909Z,0.90
2023-02-12T21:41:37.500Z,1.20
2023-02-12T21:43:47.479Z,1.43
2023-02-12T21:45:57.343Z,1.30
2023-02-12T21:48:06.174Z,1.20
2023-02-12T21:50:14.768Z,1.03
2023-02-12T21:52:23.391Z,1.10
2023-02-12T21:54:32.722Z,1.13
2023-02-12T21:56:42.321Z,1.13
2023-02-12T21:58:51.729Z,1.40
2023-02-12T22:01:08.806Z,0.97
2023-02-12T22:03:17.860Z,1.30
2023-02-12T22:05:26.442Z,1.20
2023-02-12T22:07:35.025Z,1.10
2023-02-12T22:09:43.503Z,1.00
2023-02-12T22:11:53.134Z,1.17
2023-02-12T22:14:01.693Z,2.23
2023-02-12T22:16:12.932Z,1.70
2023-02-12T22:18:21.616Z,2.13
2023-02-12T22:20:30.256Z,1.67
2023-02-12T22:22:38.738Z,2.67
2023-02-12T22:24:47.864Z,2.97
2023-02-12T22:26:56.949Z,1.87
2023-02-12T22:29:07.421Z,2.67
2023-02-12T22:31:19.570Z,2.30
2023-02-12T22:33:28.433Z,1.70
2023-02-12T22:35:37.096Z,2.00
2023-02-12T22:37:47.173Z,1.40
2023-02-12T22:39:55.737Z,1.00
2023-02-12T22:42:04.609Z,1.33
2023-02-12T22:44:13.540Z,1.67
2023-02-12T22:46:23.408Z,1.47
2023-02-12T22:48:32.350Z,1.50
2023-02-12T22:50:41.205Z,1.30
2023-02-12T22:52:49.767Z,1.10
2023-02-12T22:54:58.440Z,1.57
2023-02-12T22:57:06.996Z,1.33
2023-02-12T22:59:15.514Z,1.10
2023-02-12T23:01:25.510Z,1.23
2023-02-12T23:03:34.274Z,1.33
2023-02-12T23:05:42.791Z,1.50
2023-02-12T23:07:51.383Z,1.33
2023-02-12T23:10:00.042Z,1.50
2023-02-12T23:12:11.027Z,1.10
2023-02-12T23:14:19.886Z,1.00
2023-02-12T23:16:29.986Z,1.03
2023-02-12T23:18:38.553Z,1.20
2023-02-12T23:20:47.291Z,1.30
2023-02-12T23:22:55.778Z,1.33
2023-02-12T23:25:04.450Z,1.37
2023-02-12T23:27:13.188Z,1.37
2023-02-12T23:29:22.140Z,1.30
2023-02-12T23:31:32.161Z,1.23
2023-02-12T23:33:40.856Z,1.40
2023-02-12T23:35:50.139Z,1.00
2023-02-12T23:37:58.870Z,1.37
2023-02-12T23:40:08.133Z,1.17
2023-02-12T23:42:16.552Z,1.50
2023-02-12T23:44:25.334Z,1.40
2023-02-12T23:46:35.306Z,1.00
2023-02-12T23:48:44.518Z,1.30
2023-02-12T23:50:53.083Z,1.20
2023-02-12T23:53:01.764Z,1.03
2023-02-12T23:55:10.592Z,1.27
2023-02-12T23:57:19.538Z,1.33
2023-02-12T23:59:28.097Z,1.20
